createdAt,value
2023-08-11T00:02:27.359Z,100957.20
2023-08-11T00:07:30.434Z,100949.60
2023-08-11T00:12:33.474Z,100949.40
2023-08-11T00:17:36.727Z,100947.00
2023-08-11T00:22:40.041Z,100946.20
2023-08-11T00:27:43.065Z,100948.40
2023-08-11T00:32:47.025Z,100943.20
2023-08-11T00:37:51.202Z,100942.80
2023-08-11T00:42:54.433Z,100943.80
2023-08-11T00:47:57.942Z,100940.80
2023-08-11T00:53:02.563Z,100941.00
2023-08-11T00:58:07.182Z,100936.80
2023-08-11T01:03:10.181Z,100936.80
2023-08-11T01:08:50.203Z,100933.00
2023-08-11T01:14:10.917Z,100937.20
2023-08-11T01:19:29.753Z,100931.20
2023-08-11T01:24:33.465Z,100928.60
2023-08-11T01:29:36.475Z,100923.00
2023-08-11T01:34:42.316Z,100924.00
2023-08-11T01:39:45.442Z,100925.00
2023-08-11T01:44:49.547Z,100927.60
2023-08-11T01:49:52.840Z,100926.20
2023-08-11T01:54:56.269Z,100920.00
2023-08-11T02:00:01.466Z,100918.80
2023-08-11T02:05:09.738Z,100924.80
2023-08-11T02:10:13.792Z,100916.60
2023-08-11T02:15:16.830Z,100922.40
2023-08-11T02:20:19.877Z,100928.20
2023-08-11T02:25:28.835Z,100937.20
2023-08-11T02:30:33.032Z,100938.80
2023-08-11T02:35:36.143Z,100943.40
2023-08-11T02:40:39.137Z,100939.40
2023-08-11T02:45:42.317Z,100942.40
2023-08-11T02:50:45.465Z,100946.80
2023-08-11T02:55:48.638Z,100949.80
2023-08-11T03:00:51.750Z,100940.20
2023-08-11T03:05:56.717Z,100947.00
2023-08-11T03:10:59.666Z,100953.60
2023-08-11T03:16:03.070Z,100948.60
2023-08-11T03:21:18.837Z,100946.00
2023-08-11T03:26:22.688Z,100947.20
2023-08-11T03:31:25.858Z,100947.80
2023-08-11T03:36:28.798Z,100950.00
2023-08-11T03:41:32.320Z,100948.40
2023-08-11T03:46:35.722Z,100944.00
2023-08-11T03:51:38.817Z,100948.80
2023-08-11T03:56:41.841Z,100949.00
2023-08-11T04:01:44.717Z,100948.40
2023-08-11T04:06:47.693Z,100950.20
2023-08-11T04:11:50.697Z,100950.00
2023-08-11T04:16:53.827Z,100946.60
2023-08-11T04:21:56.812Z,100948.00
2023-08-11T04:26:59.719Z,100951.60
2023-08-11T04:32:05.973Z,100957.00
2023-08-11T04:37:09.711Z,100951.40
2023-08-11T04:42:13.931Z,100951.60
2023-08-11T04:47:16.836Z,100953.60
2023-08-11T04:52:19.817Z,100953.00
2023-08-11T04:57:22.824Z,100954.80
2023-08-11T05:02:25.837Z,100947.00
2023-08-11T05:07:29.694Z,100954.60
2023-08-11T05:12:33.637Z,100960.40
2023-08-11T05:17:36.606Z,100957.20
2023-08-11T05:22:40.236Z,100957.60
2023-08-11T05:27:43.271Z,100964.60
2023-08-11T05:32:46.298Z,100958.40
2023-08-11T05:38:18.644Z,100961.60
2023-08-11T05:43:29.741Z,100964.20
2023-08-11T05:48:32.705Z,100964.60
2023-08-11T05:53:35.723Z,100961.20
2023-08-11T05:58:38.735Z,100957.80
2023-08-11T06:03:41.727Z,100956.80
2023-08-11T06:08:44.834Z,100961.20
2023-08-11T06:13:47.886Z,100956.60
2023-08-11T06:18:51.473Z,100965.60
2023-08-11T06:23:54.668Z,100965.80
2023-08-11T06:28:57.676Z,100968.00
2023-08-11T06:34:00.645Z,100979.00
2023-08-11T06:39:03.979Z,100980.20
2023-08-11T06:44:07.761Z,100978.20
2023-08-11T06:49:10.850Z,100972.80
2023-08-11T06:54:14.209Z,100978.20
2023-08-11T06:59:18.612Z,100986.60
2023-08-11T07:04:21.929Z,100993.60
2023-08-11T07:09:25.718Z,100995.20
2023-08-11T07:14:28.748Z,100994.40
2023-08-11T07:19:31.802Z,100997.00
2023-08-11T07:24:34.843Z,101002.60
2023-08-11T07:29:37.898Z,101007.60
2023-08-11T07:34:42.006Z,101009.40
2023-08-11T07:39:45.230Z,101011.40
2023-08-11T07:44:48.315Z,101023.00
2023-08-11T07:49:51.331Z,101028.80
2023-08-11T07:54:54.834Z,101020.60
2023-08-11T07:59:58.810Z,101017.60
2023-08-11T08:05:12.216Z,101014.40
2023-08-11T08:10:16.162Z,101014.80
2023-08-11T08:15:20.297Z,101012.00
2023-08-11T08:20:23.432Z,101014.60
2023-08-11T08:25:26.541Z,101017.80
2023-08-11T08:30:29.511Z,101024.60
2023-08-11T08:35:32.800Z,101024.40
2023-08-11T08:40:37.441Z,101027.60
2023-08-11T08:45:46.241Z,101026.80
2023-08-11T08:50:49.616Z,101026.40
2023-08-11T08:55:53.910Z,101030.80
2023-08-11T09:00:58.000Z,101033.40
2023-08-11T09:06:01.209Z,101039.40
2023-08-11T09:11:04.237Z,101047.00
2023-08-11T09:16:07.657Z,101043.00
2023-08-11T09:21:10.791Z,101044.00
2023-08-11T09:26:13.763Z,101040.60
2023-08-11T09:31:17.733Z,101037.40
2023-08-11T09:36:21.642Z,101040.20
2023-08-11T09:41:24.693Z,101030.20
2023-08-11T09:46:29.352Z,101027.60
2023-08-11T09:51:39.146Z,101030.60
2023-08-11T09:56:44.836Z,101022.20
2023-08-11T10:01:52.080Z,101019.40
2023-08-11T10:07:02.025Z,101019.60
2023-08-11T10:12:08.840Z,101020.60
2023-08-11T10:17:14.964Z,101026.20
2023-08-11T10:22:21.422Z,101030.40
2023-08-11T10:27:28.074Z,101034.60
2023-08-11T10:32:40.360Z,101032.60
2023-08-11T10:37:44.013Z,101027.80
2023-08-11T10:42:47.953Z,101031.80
2023-08-11T10:48:03.395Z,101033.80
2023-08-11T10:53:23.382Z,101033.40
2023-08-11T10:58:34.175Z,101036.40
2023-08-11T11:03:43.167Z,101038.20
2023-08-11T11:08:49.996Z,101040.60
2023-08-11T11:13:53.857Z,101035.20
2023-08-11T11:18:59.694Z,101043.20
2023-08-11T11:24:03.781Z,101049.80
2023-08-11T11:29:14.075Z,101048.40
2023-08-11T11:34:21.308Z,101047.40
2023-08-11T11:39:26.656Z,101044.00
2023-08-11T11:44:30.710Z,101044.60
2023-08-11T11:49:37.062Z,101041.60
2023-08-11T11:54:41.107Z,101044.00
2023-08-11T11:59:49.878Z,101042.20
2023-08-11T12:04:54.204Z,101037.00
2023-08-11T12:10:02.289Z,101038.80
2023-08-11T12:15:09.071Z,101030.40
2023-08-11T12:20:13.688Z,101031.20
2023-08-11T12:25:17.974Z,101029.00
2023-08-11T12:30:21.404Z,101021.20
2023-08-11T12:35:25.649Z,101025.40
2023-08-11T12:40:32.243Z,101021.00
2023-08-11T12:45:36.042Z,101019.20
2023-08-11T12:50:48.909Z,101017.00
2023-08-11T12:55:52.418Z,101021.80
2023-08-11T13:00:55.528Z,101018.80
2023-08-11T13:05:58.610Z,101019.00
2023-08-11T13:11:01.632Z,101013.00
2023-08-11T13:16:05.515Z,101017.20
2023-08-11T13:21:10.668Z,101009.00
2023-08-11T13:26:17.480Z,101007.20
2023-08-11T13:31:20.661Z,101001.60
2023-08-11T13:36:27.849Z,101007.80
2023-08-11T13:41:31.407Z,101005.20
2023-08-11T13:46:40.881Z,101009.60
2023-08-11T13:51:53.277Z,101015.80
2023-08-11T13:56:57.393Z,101009.60
2023-08-11T14:02:02.706Z,101014.00
2023-08-11T14:07:22.608Z,101012.60
2023-08-11T14:12:34.722Z,101011.80
2023-08-11T14:17:38.184Z,101006.60
2023-08-11T14:22:41.428Z,101003.40
2023-08-11T14:27:44.482Z,101006.60
2023-08-11T14:32:54.377Z,100995.00
2023-08-11T14:37:59.957Z,100999.60
2023-08-11T14:43:03.137Z,101003.00
2023-08-11T14:48:09.893Z,101004.40
2023-08-11T14:53:13.811Z,101004.80
2023-08-11T14:58:17.445Z,100997.40
2023-08-11T15:03:20.708Z,100999.20
2023-08-11T15:08:24.453Z,100989.00
2023-08-11T15:13:27.529Z,100991.00
2023-08-11T15:18:31.797Z,100992.20
2023-08-11T15:23:36.633Z,100996.00
2023-08-11T15:28:39.688Z,100996.80
2023-08-11T15:33:43.209Z,100996.20
2023-08-11T15:38:46.162Z,101000.20
2023-08-11T15:43:50.534Z,101001.40
2023-08-11T15:48:53.742Z,100997.00
2023-08-11T15:53:56.739Z,100998.60
2023-08-11T15:58:59.796Z,100998.40
2023-08-11T16:04:04.394Z,101004.20
2023-08-11T16:09:08.259Z,101003.80
2023-08-11T16:14:13.424Z,101001.80
2023-08-11T16:19:19.783Z,100999.40
2023-08-11T16:24:28.375Z,101000.40
2023-08-11T16:29:33.875Z,101005.40
2023-08-11T16:34:37.385Z,101004.80
2023-08-11T16:39:41.024Z,101003.40
2023-08-11T16:44:44.359Z,100994.60
2023-08-11T16:49:51.558Z,100994.00
2023-08-11T16:54:54.921Z,100997.60
2023-08-11T17:00:02.296Z,101000.20
2023-08-11T17:05:08.384Z,101001.40
2023-08-11T17:10:14.899Z,100995.20
2023-08-11T17:15:23.130Z,101004.60
2023-08-11T17:20:34.051Z,101006.00
2023-08-11T17:25:37.918Z,101002.20
2023-08-11T17:30:41.989Z,101008.40
2023-08-11T17:35:46.427Z,101010.40
2023-08-11T17:40:51.500Z,101006.80
2023-08-11T17:45:54.615Z,101011.00
2023-08-11T17:51:00.966Z,101013.00
2023-08-11T17:56:07.720Z,101025.20
2023-08-11T18:01:11.084Z,101027.60
2023-08-11T18:06:14.292Z,101026.80
2023-08-11T18:11:17.470Z,101027.60
2023-08-11T18:16:23.808Z,101031.20
2023-08-11T18:21:27.440Z,101032.60
2023-08-11T18:26:36.476Z,101038.40
2023-08-11T18:31:43.492Z,101044.00
2023-08-11T18:36:48.766Z,101048.80
2023-08-11T18:41:53.495Z,101053.00
2023-08-11T18:47:04.737Z,101055.60
2023-08-11T18:52:08.175Z,101050.20
2023-08-11T18:57:14.442Z,101051.00
2023-08-11T19:02:26.375Z,101060.60
2023-08-11T19:07:50.287Z,101068.00
2023-08-11T19:13:02.043Z,101070.20
2023-08-11T19:18:06.583Z,101077.80
2023-08-11T19:23:09.832Z,101082.00
2023-08-11T19:28:13.522Z,101073.80
2023-08-11T19:33:23.245Z,101071.80
2023-08-11T19:38:27.283Z,101080.20
2023-08-11T19:43:30.396Z,101078.60
2023-08-11T19:48:39.044Z,101075.00
2023-08-11T19:53:45.668Z,101071.40
2023-08-11T19:58:50.684Z,101069.20
2023-08-11T20:03:54.087Z,101069.60
2023-08-11T20:08:58.176Z,101071.80
2023-08-11T20:14:05.423Z,101077.20
2023-08-11T20:19:14.304Z,101080.40
2023-08-11T20:24:20.298Z,101078.60
2023-08-11T20:29:25.331Z,101072.00
2023-08-11T20:34:28.819Z,101080.00
2023-08-11T20:39:31.931Z,101082.80
2023-08-11T20:44:35.037Z,101081.00
2023-08-11T20:49:38.143Z,101078.80
2023-08-11T20:54:44.850Z,101079.80
2023-08-11T20:59:47.808Z,101079.40
2023-08-11T21:04:50.820Z,101075.20
2023-08-11T21:09:53.726Z,101071.20
2023-08-11T21:14:56.685Z,101073.80
2023-08-11T21:19:59.613Z,101074.20
2023-08-11T21:25:03.212Z,101077.20
2023-08-11T21:30:07.516Z,101066.40
2023-08-11T21:35:10.718Z,101066.20
2023-08-11T21:40:14.069Z,101069.60
2023-08-11T21:45:22.148Z,101068.40
2023-08-11T21:50:27.436Z,101057.20
2023-08-11T21:55:30.830Z,101061.60
2023-08-11T22:00:37.168Z,101062.00
2023-08-11T22:05:43.241Z,101058.00
2023-08-11T22:10:46.440Z,101058.00
2023-08-11T22:15:51.062Z,101053.00
2023-08-11T22:20:54.057Z,101057.20
2023-08-11T22:25:57.019Z,101057.80
2023-08-11T22:31:00.094Z,101050.20
2023-08-11T22:36:03.304Z,101055.40
2023-08-11T22:41:06.273Z,101057.00
2023-08-11T22:46:09.311Z,101050.60
2023-08-11T22:51:12.303Z,101042.80
2023-08-11T22:56:15.244Z,101049.80
2023-08-11T23:01:18.143Z,101052.00
2023-08-11T23:06:21.271Z,101047.80
2023-08-11T23:11:24.170Z,101039.40
2023-08-11T23:16:27.346Z,101039.20
2023-08-11T23:21:30.749Z,101038.00
2023-08-11T23:26:33.692Z,101041.00
2023-08-11T23:31:36.647Z,101044.40
2023-08-11T23:36:39.814Z,101037.80
2023-08-11T23:41:42.804Z,101044.00
2023-08-11T23:46:45.780Z,101037.20
2023-08-11T23:51:48.699Z,101031.40
2023-08-11T23:56:51.695Z,101034.20
